Dobrodošli na spletni strani vremenske postaje Senovo. Vse informacije so informativnega značaja, saj vremenska postaja ni del državne mreže meteoroloških postaj. AKTUALNIH OBVESTIL NI.


Sneg/Led Od: 23-02-2018 00:00 Do: 23:59 Opozorilo za: Sneg/Led Stopnja: Rumena info button

Pogled proti Armezu več informacij Pogled proti Armezu


Lisca več informacij Lisca


Radar strel več informacij blitzortung!


opozorilo za sneg/led več informacij rain snow radar


Obiščite še:

Template documentation
and downloads

And another site



Weather Underground, zgodovina - Tekstovno

Dnevni povzetek za Januar 20, 2018 Enote:  Obe    Angleško   Metrično
« Predhodni Dan
Naslednji Dan »
Dnevni Tedenski Mesečni Letni Po meri
  Višja: Nižja: Povprečje:
Temperatura: TemperatureC °F /  -17.8 °C -0.1 °F /  -17.8 °C 1.5 °F /  -16.9 °C
Točka rosišča: DewpointC °F /  -17.8 °C -0.8 °F /  -18.2 °C 0.7 °F /  -17.4 °C
Vlažnost: Humidity % 91 % 94 %
Hitrost vetra: WindSpeedKMH mph /  0 km/h - 1.2 mph /  1.9 km/h
Sunki vetra: WindSpeedGustKMH mph /  0 km/h - -
Veter:- - SSW
Zračni tlak: PressurehPa in /  0 hPa 1002.9 in /  33958.2 hPa -
Padavine: 0.0 in /  0 mm    
Historical Graphs
 
 
Tabelarni podarki za Januar 20, 2018
Čas Temperatura Točka rosišča Zračni tlak Veter Hitrost vetra Sunki vetra Vlažnost Intenziteta padavin (urna)
TemperatureC °F /  -17.8 °C DewpointC °F /  -17.8 °C PressurehPa in /  0 hPa Calm     Humidity % HourlyPrecipMM in /  0 mm
00:03 2.5 °F /  -16.4 °C 1.6 °F /  -16.9 °C 1013.1 in /  34303.6 hPa SW 4.5 mph /  7.2 km/h 6.9 mph /  11.1 km/h 94 % 0.0 in /  0 mm
00:08 2.5 °F /  -16.4 °C 1.6 °F /  -16.9 °C 1013.1 in /  34303.6 hPa SW 3.4 mph /  5.5 km/h 6.1 mph /  9.8 km/h 94 % 0.0 in /  0 mm
00:13 2.5 °F /  -16.4 °C 1.6 °F /  -16.9 °C 1013.1 in /  34303.6 hPa SW 1.4 mph /  2.3 km/h 3.5 mph /  5.6 km/h 94 % 0.0 in /  0 mm
00:18 2.4 °F /  -16.4 °C 1.6 °F /  -16.9 °C 1013.1 in /  34303.6 hPa SSW 0.2 mph /  0.3 km/h 3.2 mph /  5.1 km/h 94 % 0.0 in /  0 mm
00:23 2.4 °F /  -16.4 °C 1.6 °F /  -16.9 °C 1013.1 in /  34303.6 hPa SW 0.2 mph /  0.3 km/h 2.1 mph /  3.4 km/h 94 % 0.0 in /  0 mm
00:28 2.4 °F /  -16.4 °C 1.6 °F /  -16.9 °C 1013.1 in /  34303.6 hPa Calm     94 % 0.0 in /  0 mm
00:33 2.3 °F /  -16.5 °C 1.4 °F /  -17 °C 1013.1 in /  34303.6 hPa Calm     94 % 0.0 in /  0 mm
00:38 2.3 °F /  -16.5 °C 1.4 °F /  -17 °C 1013.1 in /  34303.6 hPa Calm     94 % 0.0 in /  0 mm
00:43 2.3 °F /  -16.5 °C 1.4 °F /  -17 °C 1013.1 in /  34303.6 hPa Calm     94 % 0.0 in /  0 mm
00:48 2.3 °F /  -16.5 °C 1.4 °F /  -17 °C 1013.1 in /  34303.6 hPa Calm     94 % 0.0 in /  0 mm
00:53 2.3 °F /  -16.5 °C 1.4 °F /  -17 °C 1013.1 in /  34303.6 hPa Calm     94 % 0.0 in /  0 mm
00:58 2.2 °F /  -16.6 °C 1.3 °F /  -17.1 °C 1013.1 in /  34303.6 hPa Calm     94 % 0.0 in /  0 mm
01:03 2.2 °F /  -16.6 °C 1.3 °F /  -17.1 °C 1013.1 in /  34303.6 hPa Calm     94 % 0.0 in /  0 mm
01:08 2.2 °F /  -16.6 °C 1.3 °F /  -17.1 °C 1013.1 in /  34303.6 hPa Calm     94 % 0.0 in /  0 mm
01:13 2.2 °F /  -16.6 °C 1.3 °F /  -17.1 °C 1013.1 in /  34303.6 hPa Calm     94 % 0.0 in /  0 mm
01:18 2.2 °F /  -16.6 °C 1.3 °F /  -17.1 °C 1013.1 in /  34303.6 hPa Calm     94 % 0.0 in /  0 mm
01:23 2.1 °F /  -16.6 °C 1.2 °F /  -17.1 °C 1013.1 in /  34303.6 hPa Calm     94 % 0.0 in /  0 mm
01:28 2.1 °F /  -16.6 °C 1.2 °F /  -17.1 °C 1012.1 in /  34269.7 hPa Calm     94 % 0.0 in /  0 mm
01:33 2.1 °F /  -16.6 °C 1.2 °F /  -17.1 °C 1012.1 in /  34269.7 hPa Calm     94 % 0.0 in /  0 mm
01:38 2.1 °F /  -16.6 °C 1.2 °F /  -17.1 °C 1012.1 in /  34269.7 hPa Calm     94 % 0.0 in /  0 mm
01:44 2.0 °F /  -16.7 °C 1.1 °F /  -17.2 °C 1013.1 in /  34303.6 hPa SSW 0.5 mph /  0.8 km/h 2.6 mph /  4.2 km/h 94 % 0.0 in /  0 mm
01:49 1.9 °F /  -16.7 °C 1.2 °F /  -17.1 °C 1013.1 in /  34303.6 hPa SSW 0.5 mph /  0.8 km/h 2.6 mph /  4.2 km/h 95 % 0.0 in /  0 mm
01:54 1.9 °F /  -16.7 °C 1.1 °F /  -17.2 °C 1013.1 in /  34303.6 hPa Calm     94 % 0.0 in /  0 mm
01:59 1.8 °F /  -16.8 °C 0.9 °F /  -17.3 °C 1012.1 in /  34269.7 hPa Calm     94 % 0.0 in /  0 mm
02:04 1.7 °F /  -16.8 °C 0.8 °F /  -17.3 °C 1012.1 in /  34269.7 hPa Calm     94 % 0.0 in /  0 mm
02:09 1.6 °F /  -16.9 °C 0.7 °F /  -17.4 °C 1012.1 in /  34269.7 hPa Calm     94 % 0.0 in /  0 mm
02:14 1.5 °F /  -16.9 °C 0.7 °F /  -17.4 °C 1013.1 in /  34303.6 hPa Calm     94 % 0.0 in /  0 mm
02:19 1.4 °F /  -17 °C 0.6 °F /  -17.4 °C 1013.1 in /  34303.6 hPa Calm     94 % 0.0 in /  0 mm
02:24 1.4 °F /  -17 °C 0.6 °F /  -17.4 °C 1013.1 in /  34303.6 hPa Calm   2.1 mph /  3.4 km/h 94 % 0.0 in /  0 mm
02:29 1.3 °F /  -17.1 °C 0.4 °F /  -17.6 °C 1012.1 in /  34269.7 hPa Calm   2.1 mph /  3.4 km/h 94 % 0.0 in /  0 mm
02:34 1.2 °F /  -17.1 °C 0.3 °F /  -17.6 °C 1012.1 in /  34269.7 hPa Calm     94 % 0.0 in /  0 mm
02:39 1.1 °F /  -17.2 °C 0.2 °F /  -17.7 °C 1012.1 in /  34269.7 hPa SW 1.0 mph /  1.6 km/h 4.0 mph /  6.4 km/h 94 % 0.0 in /  0 mm
02:44 1.0 °F /  -17.2 °C 0.2 °F /  -17.7 °C 1013.1 in /  34303.6 hPa West 1.8 mph /  2.9 km/h 4.0 mph /  6.4 km/h 94 % 0.0 in /  0 mm
02:49 0.9 °F /  -17.3 °C 0.1 °F /  -17.7 °C 1013.1 in /  34303.6 hPa NNW 1.0 mph /  1.6 km/h 3.5 mph /  5.6 km/h 94 % 0.0 in /  0 mm
02:54 0.7 °F /  -17.4 °C -0.2 °F /  -17.9 °C 1013.1 in /  34303.6 hPa Calm     94 % 0.0 in /  0 mm
02:59 0.7 °F /  -17.4 °C -0.2 °F /  -17.9 °C 1013.1 in /  34303.6 hPa Calm     94 % 0.0 in /  0 mm
03:04 0.6 °F /  -17.4 °C -0.3 °F /  -17.9 °C 1013.1 in /  34303.6 hPa Calm     94 % 0.0 in /  0 mm
03:09 0.5 °F /  -17.5 °C -0.3 °F /  -17.9 °C 1013.1 in /  34303.6 hPa Calm     94 % 0.0 in /  0 mm
03:14 0.4 °F /  -17.6 °C -0.4 °F /  -18 °C 1013.1 in /  34303.6 hPa SW 0.6 mph /  1 km/h 3.5 mph /  5.6 km/h 94 % 0.0 in /  0 mm
03:19 0.4 °F /  -17.6 °C -0.4 °F /  -18 °C 1013.1 in /  34303.6 hPa SW 1.0 mph /  1.6 km/h 3.5 mph /  5.6 km/h 94 % 0.0 in /  0 mm
03:24 0.4 °F /  -17.6 °C -0.4 °F /  -18 °C 1013.1 in /  34303.6 hPa SW 0.3 mph /  0.5 km/h 2.1 mph /  3.4 km/h 94 % 0.0 in /  0 mm
03:29 0.4 °F /  -17.6 °C -0.4 °F /  -18 °C 1013.1 in /  34303.6 hPa Calm     94 % 0.0 in /  0 mm
03:34 0.3 °F /  -17.6 °C -0.6 °F /  -18.1 °C 1013.1 in /  34303.6 hPa Calm     94 % 0.0 in /  0 mm
03:39 0.4 °F /  -17.6 °C -0.4 °F /  -18 °C 1013.1 in /  34303.6 hPa Calm     94 % 0.0 in /  0 mm
03:44 0.4 °F /  -17.6 °C -0.4 °F /  -18 °C 1012.1 in /  34269.7 hPa Calm     94 % 0.0 in /  0 mm
03:49 0.4 °F /  -17.6 °C -0.4 °F /  -18 °C 1012.1 in /  34269.7 hPa Calm     94 % 0.0 in /  0 mm
03:54 0.5 °F /  -17.5 °C -0.3 °F /  -17.9 °C 1012.1 in /  34269.7 hPa Calm     94 % 0.0 in /  0 mm
03:59 0.5 °F /  -17.5 °C -0.3 °F /  -17.9 °C 1012.1 in /  34269.7 hPa Calm     94 % 0.0 in /  0 mm
04:04 0.6 °F /  -17.4 °C -0.3 °F /  -17.9 °C 1012.1 in /  34269.7 hPa Calm     94 % 0.0 in /  0 mm
04:09 0.6 °F /  -17.4 °C -0.3 °F /  -17.9 °C 1012.1 in /  34269.7 hPa NNW 0.5 mph /  0.8 km/h 3.2 mph /  5.1 km/h 94 % 0.0 in /  0 mm
04:14 0.6 °F /  -17.4 °C -0.3 °F /  -17.9 °C 1012.1 in /  34269.7 hPa NNW 0.5 mph /  0.8 km/h 3.2 mph /  5.1 km/h 94 % 0.0 in /  0 mm
04:19 0.6 °F /  -17.4 °C -0.3 °F /  -17.9 °C 1012.1 in /  34269.7 hPa Calm     94 % 0.0 in /  0 mm
04:24 0.7 °F /  -17.4 °C -0.2 °F /  -17.9 °C 1012.1 in /  34269.7 hPa Calm     94 % 0.0 in /  0 mm
04:29 0.7 °F /  -17.4 °C 0.0 °F /  -17.8 °C 1012.1 in /  34269.7 hPa Calm     95 % 0.0 in /  0 mm
04:34 0.7 °F /  -17.4 °C 0.0 °F /  -17.8 °C 1012.1 in /  34269.7 hPa NW 0.5 mph /  0.8 km/h 3.2 mph /  5.1 km/h 95 % 0.0 in /  0 mm
04:39 0.8 °F /  -17.3 °C 0.1 °F /  -17.7 °C 1012.1 in /  34269.7 hPa NW 0.6 mph /  1 km/h 3.2 mph /  5.1 km/h 95 % 0.0 in /  0 mm
04:44 0.8 °F /  -17.3 °C 0.1 °F /  -17.7 °C 1012.1 in /  34269.7 hPa NW 0.2 mph /  0.3 km/h 2.6 mph /  4.2 km/h 95 % 0.0 in /  0 mm
04:49 0.8 °F /  -17.3 °C 0.1 °F /  -17.7 °C 1012.1 in /  34269.7 hPa NNW 0.2 mph /  0.3 km/h 3.2 mph /  5.1 km/h 95 % 0.0 in /  0 mm
04:54 0.8 °F /  -17.3 °C 0.1 °F /  -17.7 °C 1012.1 in /  34269.7 hPa NNW 0.2 mph /  0.3 km/h 3.2 mph /  5.1 km/h 95 % 0.0 in /  0 mm
04:59 0.7 °F /  -17.4 °C 0.0 °F /  -17.8 °C 1012.1 in /  34269.7 hPa West 0.6 mph /  1 km/h 4.0 mph /  6.4 km/h 95 % 0.0 in /  0 mm
05:04 0.7 °F /  -17.4 °C 0.0 °F /  -17.8 °C 1012.1 in /  34269.7 hPa WNW 1.1 mph /  1.8 km/h 4.0 mph /  6.4 km/h 95 % 0.0 in /  0 mm
05:09 0.7 °F /  -17.4 °C 0.0 °F /  -17.8 °C 1012.1 in /  34269.7 hPa WNW 0.6 mph /  1 km/h 3.5 mph /  5.6 km/h 95 % 0.0 in /  0 mm
05:14 0.7 °F /  -17.4 °C 0.0 °F /  -17.8 °C 1013.1 in /  34303.6 hPa WNW 0.3 mph /  0.5 km/h 3.2 mph /  5.1 km/h 95 % 0.0 in /  0 mm
05:19 0.6 °F /  -17.4 °C -0.1 °F /  -17.8 °C 1013.1 in /  34303.6 hPa WNW 0.3 mph /  0.5 km/h 3.2 mph /  5.1 km/h 95 % 0.0 in /  0 mm
05:24 0.6 °F /  -17.4 °C -0.1 °F /  -17.8 °C 1013.1 in /  34303.6 hPa SSW 0.5 mph /  0.8 km/h 4.7 mph /  7.6 km/h 95 % 0.0 in /  0 mm
05:29 0.6 °F /  -17.4 °C -0.1 °F /  -17.8 °C 1012.1 in /  34269.7 hPa SW 1.9 mph /  3.1 km/h 4.7 mph /  7.6 km/h 95 % 0.0 in /  0 mm
05:34 0.5 °F /  -17.5 °C -0.2 °F /  -17.9 °C 1012.1 in /  34269.7 hPa WSW 1.6 mph /  2.6 km/h 4.7 mph /  7.6 km/h 95 % 0.0 in /  0 mm
05:39 0.4 °F /  -17.6 °C -0.3 °F /  -17.9 °C 1012.1 in /  34269.7 hPa WSW 0.3 mph /  0.5 km/h 2.6 mph /  4.2 km/h 95 % 0.0 in /  0 mm
05:44 0.4 °F /  -17.6 °C -0.3 °F /  -17.9 °C 1012.1 in /  34269.7 hPa NW 0.3 mph /  0.5 km/h 3.5 mph /  5.6 km/h 95 % 0.0 in /  0 mm
05:49 0.4 °F /  -17.6 °C -0.3 °F /  -17.9 °C 1012.1 in /  34269.7 hPa WNW 0.5 mph /  0.8 km/h 5.5 mph /  8.9 km/h 95 % 0.0 in /  0 mm
05:54 0.3 °F /  -17.6 °C -0.4 °F /  -18 °C 1012.1 in /  34269.7 hPa WSW 1.0 mph /  1.6 km/h 5.5 mph /  8.9 km/h 95 % 0.0 in /  0 mm
05:59 0.3 °F /  -17.6 °C -0.4 °F /  -18 °C 1012.1 in /  34269.7 hPa WSW 0.6 mph /  1 km/h 3.2 mph /  5.1 km/h 95 % 0.0 in /  0 mm
06:04 0.3 °F /  -17.6 °C -0.4 °F /  -18 °C 1012.1 in /  34269.7 hPa Calm     95 % 0.0 in /  0 mm
06:09 0.3 °F /  -17.6 °C -0.4 °F /  -18 °C 1012.1 in /  34269.7 hPa Calm     95 % 0.0 in /  0 mm
06:14 0.3 °F /  -17.6 °C -0.4 °F /  -18 °C 1012.1 in /  34269.7 hPa NE 1.0 mph /  1.6 km/h 4.3 mph /  6.9 km/h 95 % 0.0 in /  0 mm
06:19 0.3 °F /  -17.6 °C -0.4 °F /  -18 °C 1012.1 in /  34269.7 hPa NE 1.1 mph /  1.8 km/h 4.3 mph /  6.9 km/h 95 % 0.0 in /  0 mm
06:24 0.2 °F /  -17.7 °C -0.5 °F /  -18.1 °C 1012.1 in /  34269.7 hPa NE 0.3 mph /  0.5 km/h 2.1 mph /  3.4 km/h 95 % 0.0 in /  0 mm
06:29 0.2 °F /  -17.7 °C -0.5 °F /  -18.1 °C 1013.1 in /  34303.6 hPa NE 0.2 mph /  0.3 km/h 2.1 mph /  3.4 km/h 95 % 0.0 in /  0 mm
06:34 0.3 °F /  -17.6 °C -0.4 °F /  -18 °C 1013.1 in /  34303.6 hPa East 0.5 mph /  0.8 km/h 3.2 mph /  5.1 km/h 95 % 0.0 in /  0 mm
06:39 0.2 °F /  -17.7 °C -0.5 °F /  -18.1 °C 1013.1 in /  34303.6 hPa ESE 0.5 mph /  0.8 km/h 3.2 mph /  5.1 km/h 95 % 0.0 in /  0 mm
06:44 0.2 °F /  -17.7 °C -0.5 °F /  -18.1 °C 1012.1 in /  34269.7 hPa Calm     95 % 0.0 in /  0 mm
06:49 0.2 °F /  -17.7 °C -0.5 °F /  -18.1 °C 1012.1 in /  34269.7 hPa Calm     95 % 0.0 in /  0 mm
06:54 0.1 °F /  -17.7 °C -0.6 °F /  -18.1 °C 1012.1 in /  34269.7 hPa Calm     95 % 0.0 in /  0 mm
06:59 0.1 °F /  -17.7 °C -0.6 °F /  -18.1 °C 1012.1 in /  34269.7 hPa Calm     95 % 0.0 in /  0 mm
07:04 0.1 °F /  -17.7 °C -0.6 °F /  -18.1 °C 1012.1 in /  34269.7 hPa Calm     95 % 0.0 in /  0 mm
07:09 0.1 °F /  -17.7 °C -0.6 °F /  -18.1 °C 1012.1 in /  34269.7 hPa Calm     95 % 0.0 in /  0 mm
07:14 0.1 °F /  -17.7 °C -0.6 °F /  -18.1 °C 1012.1 in /  34269.7 hPa Calm     95 % 0.0 in /  0 mm
07:19 0.1 °F /  -17.7 °C -0.6 °F /  -18.1 °C 1012.1 in /  34269.7 hPa Calm     95 % 0.0 in /  0 mm
07:24 0.0 °F /  -17.8 °C -0.7 °F /  -18.2 °C 1012.1 in /  34269.7 hPa Calm     95 % 0.0 in /  0 mm
07:29 0.0 °F /  -17.8 °C -0.7 °F /  -18.2 °C 1013.1 in /  34303.6 hPa Calm     95 % 0.0 in /  0 mm
07:34 0.0 °F /  -17.8 °C -0.7 °F /  -18.2 °C 1013.1 in /  34303.6 hPa Calm     95 % 0.0 in /  0 mm
07:39 0.0 °F /  -17.8 °C -0.7 °F /  -18.2 °C 1013.1 in /  34303.6 hPa Calm     95 % 0.0 in /  0 mm
07:44 -0.1 °F /  -17.8 °C -0.8 °F /  -18.2 °C 1013.1 in /  34303.6 hPa Calm     95 % 0.0 in /  0 mm
07:49 -0.1 °F /  -17.8 °C -0.8 °F /  -18.2 °C 1013.1 in /  34303.6 hPa Calm     95 % 0.0 in /  0 mm
07:54 -0.1 °F /  -17.8 °C -0.8 °F /  -18.2 °C 1013.1 in /  34303.6 hPa Calm     95 % 0.0 in /  0 mm
07:59 -0.1 °F /  -17.8 °C -0.8 °F /  -18.2 °C 1013.1 in /  34303.6 hPa Calm     95 % 0.0 in /  0 mm
08:04 -0.1 °F /  -17.8 °C -0.8 °F /  -18.2 °C 1013.1 in /  34303.6 hPa Calm     95 % 0.0 in /  0 mm
08:09 -0.1 °F /  -17.8 °C -0.8 °F /  -18.2 °C 1013.1 in /  34303.6 hPa Calm     95 % 0.0 in /  0 mm
08:14 -0.1 °F /  -17.8 °C -0.8 °F /  -18.2 °C 1013.1 in /  34303.6 hPa Calm     95 % 0.0 in /  0 mm
08:19 0.0 °F /  -17.8 °C -0.7 °F /  -18.2 °C 1013.1 in /  34303.6 hPa Calm     95 % 0.0 in /  0 mm
08:24 0.0 °F /  -17.8 °C -0.7 °F /  -18.2 °C 1013.1 in /  34303.6 hPa Calm     95 % 0.0 in /  0 mm
08:29 0.0 °F /  -17.8 °C -0.7 °F /  -18.2 °C 1013.1 in /  34303.6 hPa Calm     95 % 0.0 in /  0 mm
08:34 0.0 °F /  -17.8 °C -0.7 °F /  -18.2 °C 1013.1 in /  34303.6 hPa Calm     95 % 0.0 in /  0 mm
08:39 0.0 °F /  -17.8 °C -0.7 °F /  -18.2 °C 1013.1 in /  34303.6 hPa Calm     95 % 0.0 in /  0 mm
08:44 0.0 °F /  -17.8 °C -0.7 °F /  -18.2 °C 1013.1 in /  34303.6 hPa Calm     95 % 0.0 in /  0 mm
08:49 -0.1 °F /  -17.8 °C -0.8 °F /  -18.2 °C 1013.1 in /  34303.6 hPa Calm     95 % 0.0 in /  0 mm
08:54 -0.1 °F /  -17.8 °C -0.8 °F /  -18.2 °C 1013.1 in /  34303.6 hPa Calm     95 % 0.0 in /  0 mm
08:59 0.0 °F /  -17.8 °C -0.7 °F /  -18.2 °C 1013.1 in /  34303.6 hPa Calm     95 % 0.0 in /  0 mm
09:04 0.0 °F /  -17.8 °C -0.7 °F /  -18.2 °C 1013.1 in /  34303.6 hPa Calm     95 % 0.0 in /  0 mm
09:09 -0.1 °F /  -17.8 °C -0.8 °F /  -18.2 °C 1013.1 in /  34303.6 hPa Calm     95 % 0.0 in /  0 mm
09:14 -0.1 °F /  -17.8 °C -0.8 °F /  -18.2 °C 1013.1 in /  34303.6 hPa Calm     95 % 0.0 in /  0 mm
09:19 0.0 °F /  -17.8 °C -0.7 °F /  -18.2 °C 1013.1 in /  34303.6 hPa Calm     95 % 0.0 in /  0 mm
09:24 0.0 °F /  -17.8 °C -0.6 °F /  -18.1 °C 1013.1 in /  34303.6 hPa Calm     96 % 0.0 in /  0 mm
09:29 0.1 °F /  -17.7 °C -0.4 °F /  -18 °C 1014.1 in /  34337.4 hPa Calm     96 % 0.0 in /  0 mm
09:34 0.2 °F /  -17.7 °C -0.4 °F /  -18 °C 1014.1 in /  34337.4 hPa Calm     96 % 0.0 in /  0 mm
09:39 0.3 °F /  -17.6 °C -0.3 °F /  -17.9 °C 1014.1 in /  34337.4 hPa Calm     96 % 0.0 in /  0 mm
09:44 0.4 °F /  -17.6 °C -0.2 °F /  -17.9 °C 1012.1 in /  34269.7 hPa Calm     96 % 0.0 in /  0 mm
09:49 0.4 °F /  -17.6 °C -0.2 °F /  -17.9 °C 1012.1 in /  34269.7 hPa Calm     96 % 0.0 in /  0 mm
09:54 0.6 °F /  -17.4 °C 0.1 °F /  -17.7 °C 1012.1 in /  34269.7 hPa SW 0.5 mph /  0.8 km/h 6.9 mph /  11.1 km/h 96 % 0.0 in /  0 mm
09:59 0.7 °F /  -17.4 °C 0.1 °F /  -17.7 °C 1013.1 in /  34303.6 hPa WSW 2.7 mph /  4.3 km/h 6.9 mph /  11.1 km/h 96 % 0.0 in /  0 mm
10:04 0.7 °F /  -17.4 °C 0.1 °F /  -17.7 °C 1013.1 in /  34303.6 hPa WSW 1.9 mph /  3.1 km/h 6.4 mph /  10.3 km/h 96 % 0.0 in /  0 mm
10:09 0.7 °F /  -17.4 °C 0.1 °F /  -17.7 °C 1013.1 in /  34303.6 hPa West 1.0 mph /  1.6 km/h 4.3 mph /  6.9 km/h 96 % 0.0 in /  0 mm
10:14 0.8 °F /  -17.3 °C 0.2 °F /  -17.7 °C 1012.1 in /  34269.7 hPa WSW 1.3 mph /  2.1 km/h 5.0 mph /  8 km/h 96 % 0.0 in /  0 mm
10:19 0.9 °F /  -17.3 °C 0.3 °F /  -17.6 °C 1012.1 in /  34269.7 hPa SW 1.0 mph /  1.6 km/h 5.0 mph /  8 km/h 96 % 0.0 in /  0 mm
10:24 1.0 °F /  -17.2 °C 0.4 °F /  -17.6 °C 1012.1 in /  34269.7 hPa SSW 1.8 mph /  2.9 km/h 4.0 mph /  6.4 km/h 96 % 0.0 in /  0 mm
10:29 1.1 °F /  -17.2 °C 0.6 °F /  -17.4 °C 1013.1 in /  34303.6 hPa SSW 2.6 mph /  4.2 km/h 4.0 mph /  6.4 km/h 96 % 0.0 in /  0 mm
10:34 1.2 °F /  -17.1 °C 0.6 °F /  -17.4 °C 1013.1 in /  34303.6 hPa SSW 1.9 mph /  3.1 km/h 4.0 mph /  6.4 km/h 96 % 0.0 in /  0 mm
10:39 1.4 °F /  -17 °C 0.8 °F /  -17.3 °C 1013.1 in /  34303.6 hPa SSW 1.6 mph /  2.6 km/h 4.3 mph /  6.9 km/h 96 % 0.0 in /  0 mm
10:44 1.5 °F /  -16.9 °C 0.9 °F /  -17.3 °C 1013.1 in /  34303.6 hPa South 1.1 mph /  1.8 km/h 4.3 mph /  6.9 km/h 96 % 0.0 in /  0 mm
10:49 1.4 °F /  -17 °C 0.8 °F /  -17.3 °C 1013.1 in /  34303.6 hPa ENE 0.5 mph /  0.8 km/h 3.5 mph /  5.6 km/h 96 % 0.0 in /  0 mm
10:54 1.4 °F /  -17 °C 0.8 °F /  -17.3 °C 1013.1 in /  34303.6 hPa ENE 0.3 mph /  0.5 km/h 3.5 mph /  5.6 km/h 96 % 0.0 in /  0 mm
10:59 1.3 °F /  -17.1 °C 0.7 °F /  -17.4 °C 1013.1 in /  34303.6 hPa Calm     96 % 0.0 in /  0 mm
11:04 1.3 °F /  -17.1 °C 0.7 °F /  -17.4 °C 1013.1 in /  34303.6 hPa Calm     96 % 0.0 in /  0 mm
11:09 1.4 °F /  -17 °C 0.8 °F /  -17.3 °C 1013.1 in /  34303.6 hPa WNW 0.2 mph /  0.3 km/h 2.6 mph /  4.2 km/h 96 % 0.0 in /  0 mm
11:14 1.4 °F /  -17 °C 0.8 °F /  -17.3 °C 1013.1 in /  34303.6 hPa WSW 0.8 mph /  1.3 km/h 4.3 mph /  6.9 km/h 96 % 0.0 in /  0 mm
11:19 1.6 °F /  -16.9 °C 1.1 °F /  -17.2 °C 1013.1 in /  34303.6 hPa SW 0.8 mph /  1.3 km/h 4.3 mph /  6.9 km/h 96 % 0.0 in /  0 mm
11:24 1.6 °F /  -16.9 °C 1.1 °F /  -17.2 °C 1013.1 in /  34303.6 hPa ESE 0.3 mph /  0.5 km/h 2.6 mph /  4.2 km/h 96 % 0.0 in /  0 mm
11:29 1.6 °F /  -16.9 °C 1.1 °F /  -17.2 °C 1013.1 in /  34303.6 hPa ESE 0.8 mph /  1.3 km/h 4.0 mph /  6.4 km/h 96 % 0.0 in /  0 mm
11:34 1.6 °F /  -16.9 °C 1.1 °F /  -17.2 °C 1013.1 in /  34303.6 hPa East 0.8 mph /  1.3 km/h 4.0 mph /  6.4 km/h 96 % 0.0 in /  0 mm
11:39 1.8 °F /  -16.8 °C 1.4 °F /  -17 °C 1013.1 in /  34303.6 hPa ENE 0.3 mph /  0.5 km/h 2.6 mph /  4.2 km/h 97 % 0.0 in /  0 mm
11:44 1.9 °F /  -16.7 °C 1.5 °F /  -16.9 °C 1013.1 in /  34303.6 hPa Calm     97 % 0.0 in /  0 mm
11:49 2.0 °F /  -16.7 °C 1.4 °F /  -17 °C 1013.1 in /  34303.6 hPa Calm     96 % 0.0 in /  0 mm
11:54 2.2 °F /  -16.6 °C 1.6 °F /  -16.9 °C 1013.1 in /  34303.6 hPa NE 0.5 mph /  0.8 km/h 4.3 mph /  6.9 km/h 96 % 0.0 in /  0 mm
11:59 2.2 °F /  -16.6 °C 1.6 °F /  -16.9 °C 1012.1 in /  34269.7 hPa NE 1.1 mph /  1.8 km/h 4.3 mph /  6.9 km/h 96 % 0.0 in /  0 mm
12:04 2.4 °F /  -16.4 °C 1.8 °F /  -16.8 °C 1012.1 in /  34269.7 hPa NE 1.0 mph /  1.6 km/h 3.5 mph /  5.6 km/h 96 % 0.0 in /  0 mm
12:09 2.6 °F /  -16.3 °C 2.2 °F /  -16.6 °C 1012.1 in /  34269.7 hPa ESE 0.8 mph /  1.3 km/h 3.5 mph /  5.6 km/h 97 % 0.0 in /  0 mm
12:14 2.8 °F /  -16.2 °C 2.4 °F /  -16.4 °C 1012.1 in /  34269.7 hPa SE 0.5 mph /  0.8 km/h 3.5 mph /  5.6 km/h 97 % 0.0 in /  0 mm
12:19 3.1 °F /  -16.1 °C 2.5 °F /  -16.4 °C 1012.1 in /  34269.7 hPa North 0.5 mph /  0.8 km/h 3.2 mph /  5.1 km/h 96 % 0.0 in /  0 mm
12:24 3.3 °F /  -15.9 °C 2.9 °F /  -16.2 °C 1012.1 in /  34269.7 hPa NNE 0.5 mph /  0.8 km/h 3.2 mph /  5.1 km/h 97 % 0.0 in /  0 mm
12:29 3.4 °F /  -15.9 °C 2.9 °F /  -16.2 °C 1012.1 in /  34269.7 hPa SSW 0.2 mph /  0.3 km/h 4.7 mph /  7.6 km/h 97 % 0.0 in /  0 mm
12:34 3.6 °F /  -15.8 °C 3.2 °F /  -16 °C 1012.1 in /  34269.7 hPa SW 1.9 mph /  3.1 km/h 5.0 mph /  8 km/h 97 % 0.0 in /  0 mm
12:39 3.8 °F /  -15.7 °C 3.4 °F /  -15.9 °C 1012.1 in /  34269.7 hPa SW 2.1 mph /  3.4 km/h 5.0 mph /  8 km/h 97 % 0.0 in /  0 mm
12:44 3.9 °F /  -15.6 °C 3.4 °F /  -15.9 °C 1011.1 in /  34235.8 hPa SSW 1.6 mph /  2.6 km/h 5.0 mph /  8 km/h 97 % 0.0 in /  0 mm
12:49 4.2 °F /  -15.4 °C 3.6 °F /  -15.8 °C 1011.1 in /  34235.8 hPa SW 3.5 mph /  5.6 km/h 6.4 mph /  10.3 km/h 96 % 0.0 in /  0 mm
12:54 4.5 °F /  -15.3 °C 4.1 °F /  -15.5 °C 1011.1 in /  34235.8 hPa SW 4.8 mph /  7.7 km/h 6.9 mph /  11.1 km/h 97 % 0.0 in /  0 mm
12:59 4.5 °F /  -15.3 °C 4.1 °F /  -15.5 °C 1010.0 in /  34198.6 hPa SW 5.1 mph /  8.2 km/h 6.9 mph /  11.1 km/h 97 % 0.0 in /  0 mm
13:04 4.4 °F /  -15.3 °C 3.8 °F /  -15.7 °C 1010.0 in /  34198.6 hPa SSW 5.1 mph /  8.2 km/h 6.4 mph /  10.3 km/h 96 % 0.0 in /  0 mm
13:09 4.2 °F /  -15.4 °C 3.6 °F /  -15.8 °C 1010.0 in /  34198.6 hPa SW 5.1 mph /  8.2 km/h 9.0 mph /  14.5 km/h 96 % 0.0 in /  0 mm
13:14 4.1 °F /  -15.5 °C 3.5 °F /  -15.8 °C 1010.0 in /  34198.6 hPa SW 5.1 mph /  8.2 km/h 9.0 mph /  14.5 km/h 96 % 0.0 in /  0 mm
13:19 4.1 °F /  -15.5 °C 3.5 °F /  -15.8 °C 1010.0 in /  34198.6 hPa SW 5.3 mph /  8.5 km/h 7.2 mph /  11.6 km/h 96 % 0.0 in /  0 mm
13:24 4.0 °F /  -15.6 °C 3.4 °F /  -15.9 °C 1010.0 in /  34198.6 hPa SW 4.8 mph /  7.7 km/h 6.9 mph /  11.1 km/h 96 % 0.0 in /  0 mm
13:29 3.8 °F /  -15.7 °C 3.2 °F /  -16 °C 1011.1 in /  34235.8 hPa WNW 3.5 mph /  5.6 km/h 8.7 mph /  14 km/h 96 % 0.0 in /  0 mm
13:34 3.7 °F /  -15.7 °C 3.1 °F /  -16.1 °C 1011.1 in /  34235.8 hPa WNW 4.2 mph /  6.8 km/h 8.7 mph /  14 km/h 96 % 0.0 in /  0 mm
13:39 3.8 °F /  -15.7 °C 3.2 °F /  -16 °C 1011.1 in /  34235.8 hPa West 5.1 mph /  8.2 km/h 7.6 mph /  12.2 km/h 96 % 0.0 in /  0 mm
13:44 3.9 °F /  -15.6 °C 3.3 °F /  -15.9 °C 1011.1 in /  34235.8 hPa West 3.1 mph /  5 km/h 7.6 mph /  12.2 km/h 96 % 0.0 in /  0 mm
13:49 4.0 °F /  -15.6 °C 3.4 °F /  -15.9 °C 1011.1 in /  34235.8 hPa WSW 1.0 mph /  1.6 km/h 4.0 mph /  6.4 km/h 96 % 0.0 in /  0 mm
13:54 4.0 °F /  -15.6 °C 3.4 °F /  -15.9 °C 1011.1 in /  34235.8 hPa WSW 1.4 mph /  2.3 km/h 6.4 mph /  10.3 km/h 96 % 0.0 in /  0 mm
13:59 4.0 °F /  -15.6 °C 3.4 °F /  -15.9 °C 1011.1 in /  34235.8 hPa SW 2.6 mph /  4.2 km/h 6.4 mph /  10.3 km/h 96 % 0.0 in /  0 mm
14:04 4.2 °F /  -15.4 °C 3.6 °F /  -15.8 °C 1011.1 in /  34235.8 hPa SSW 3.5 mph /  5.6 km/h 5.8 mph /  9.3 km/h 96 % 0.0 in /  0 mm
14:09 4.2 °F /  -15.4 °C 3.6 °F /  -15.8 °C 1011.1 in /  34235.8 hPa SW 4.5 mph /  7.2 km/h 6.4 mph /  10.3 km/h 96 % 0.0 in /  0 mm
14:14 4.2 °F /  -15.4 °C 3.4 °F /  -15.9 °C 1010.0 in /  34198.6 hPa SW 4.5 mph /  7.2 km/h 6.4 mph /  10.3 km/h 95 % 0.0 in /  0 mm
14:19 4.3 °F /  -15.4 °C 3.6 °F /  -15.8 °C 1010.0 in /  34198.6 hPa SW 2.6 mph /  4.2 km/h 6.1 mph /  9.8 km/h 95 % 0.0 in /  0 mm
14:24 4.2 °F /  -15.4 °C 3.4 °F /  -15.9 °C 1010.0 in /  34198.6 hPa SW 3.1 mph /  5 km/h 5.5 mph /  8.9 km/h 95 % 0.0 in /  0 mm
14:29 4.3 °F /  -15.4 °C 3.6 °F /  -15.8 °C 1010.0 in /  34198.6 hPa SW 4.2 mph /  6.8 km/h 5.5 mph /  8.9 km/h 95 % 0.0 in /  0 mm
14:34 4.3 °F /  -15.4 °C 3.6 °F /  -15.8 °C 1010.0 in /  34198.6 hPa SW 3.5 mph /  5.6 km/h 5.5 mph /  8.9 km/h 95 % 0.0 in /  0 mm
14:39 4.3 °F /  -15.4 °C 3.6 °F /  -15.8 °C 1010.0 in /  34198.6 hPa SSW 3.1 mph /  5 km/h 5.5 mph /  8.9 km/h 95 % 0.0 in /  0 mm
14:44 4.3 °F /  -15.4 °C 3.6 °F /  -15.8 °C 1010.0 in /  34198.6 hPa SSW 2.4 mph /  3.9 km/h 4.7 mph /  7.6 km/h 95 % 0.0 in /  0 mm
14:49 4.3 °F /  -15.4 °C 3.6 °F /  -15.8 °C 1010.0 in /  34198.6 hPa SW 3.1 mph /  5 km/h 6.1 mph /  9.8 km/h 95 % 0.0 in /  0 mm
14:54 4.4 °F /  -15.3 °C 3.5 °F /  -15.8 °C 1010.0 in /  34198.6 hPa SW 3.4 mph /  5.5 km/h 6.1 mph /  9.8 km/h 94 % 0.0 in /  0 mm
14:59 4.4 °F /  -15.3 °C 3.5 °F /  -15.8 °C 1010.0 in /  34198.6 hPa SSW 3.2 mph /  5.1 km/h 5.8 mph /  9.3 km/h 94 % 0.0 in /  0 mm
15:04 4.4 °F /  -15.3 °C 3.5 °F /  -15.8 °C 1010.0 in /  34198.6 hPa SW 3.5 mph /  5.6 km/h 5.8 mph /  9.3 km/h 94 % 0.0 in /  0 mm
15:09 4.3 °F /  -15.4 °C 3.4 °F /  -15.9 °C 1010.0 in /  34198.6 hPa SW 2.9 mph /  4.7 km/h 5.0 mph /  8 km/h 94 % 0.0 in /  0 mm
15:14 4.3 °F /  -15.4 °C 3.4 °F /  -15.9 °C 1009.0 in /  34164.7 hPa SW 2.9 mph /  4.7 km/h 4.7 mph /  7.6 km/h 94 % 0.0 in /  0 mm
15:19 4.3 °F /  -15.4 °C 3.4 °F /  -15.9 °C 1009.0 in /  34164.7 hPa SW 2.3 mph /  3.7 km/h 4.7 mph /  7.6 km/h 94 % 0.0 in /  0 mm
15:24 4.1 °F /  -15.5 °C 3.1 °F /  -16.1 °C 1009.0 in /  34164.7 hPa SW 2.1 mph /  3.4 km/h 5.8 mph /  9.3 km/h 93 % 0.0 in /  0 mm
15:29 4.0 °F /  -15.6 °C 2.9 °F /  -16.2 °C 1008.0 in /  34130.9 hPa WSW 3.2 mph /  5.1 km/h 5.8 mph /  9.3 km/h 93 % 0.0 in /  0 mm
15:34 3.7 °F /  -15.7 °C 2.7 °F /  -16.3 °C 1008.0 in /  34130.9 hPa WSW 2.1 mph /  3.4 km/h 5.8 mph /  9.3 km/h 93 % 0.0 in /  0 mm
15:39 3.6 °F /  -15.8 °C 2.6 °F /  -16.3 °C 1008.0 in /  34130.9 hPa Calm     93 % 0.0 in /  0 mm
15:44 3.4 °F /  -15.9 °C 2.2 °F /  -16.6 °C 1008.0 in /  34130.9 hPa Calm     92 % 0.0 in /  0 mm
15:49 3.2 °F /  -16 °C 2.0 °F /  -16.7 °C 1008.0 in /  34130.9 hPa WSW 0.3 mph /  0.5 km/h 3.2 mph /  5.1 km/h 92 % 0.0 in /  0 mm
15:54 3.0 °F /  -16.1 °C 1.8 °F /  -16.8 °C 1008.0 in /  34130.9 hPa WSW 0.3 mph /  0.5 km/h 3.2 mph /  5.1 km/h 92 % 0.0 in /  0 mm
15:59 2.8 °F /  -16.2 °C 1.6 °F /  -16.9 °C 1009.0 in /  34164.7 hPa Calm     92 % 0.0 in /  0 mm
16:04 2.7 °F /  -16.3 °C 1.6 °F /  -16.9 °C 1009.0 in /  34164.7 hPa SW 0.3 mph /  0.5 km/h 4.7 mph /  7.6 km/h 92 % 0.0 in /  0 mm
16:09 2.5 °F /  -16.4 °C 1.3 °F /  -17.1 °C 1009.0 in /  34164.7 hPa SW 2.1 mph /  3.4 km/h 4.7 mph /  7.6 km/h 92 % 0.0 in /  0 mm
16:14 2.4 °F /  -16.4 °C 1.1 °F /  -17.2 °C 1010.0 in /  34198.6 hPa WSW 2.1 mph /  3.4 km/h 4.7 mph /  7.6 km/h 91 % 0.0 in /  0 mm
16:19 2.2 °F /  -16.6 °C 0.9 °F /  -17.3 °C 1010.0 in /  34198.6 hPa WSW 1.1 mph /  1.8 km/h 5.0 mph /  8 km/h 91 % 0.0 in /  0 mm
16:24 2.1 °F /  -16.6 °C 0.8 °F /  -17.3 °C 1010.0 in /  34198.6 hPa SW 2.1 mph /  3.4 km/h 5.5 mph /  8.9 km/h 91 % 0.0 in /  0 mm
16:29 2.1 °F /  -16.6 °C 0.8 °F /  -17.3 °C 1008.0 in /  34130.9 hPa SSW 3.5 mph /  5.6 km/h 6.4 mph /  10.3 km/h 91 % 0.0 in /  0 mm
16:34 2.1 °F /  -16.6 °C 0.8 °F /  -17.3 °C 1008.0 in /  34130.9 hPa SSW 3.7 mph /  6 km/h 6.4 mph /  10.3 km/h 91 % 0.0 in /  0 mm
16:39 2.1 °F /  -16.6 °C 0.8 °F /  -17.3 °C 1008.0 in /  34130.9 hPa SSW 2.6 mph /  4.2 km/h 4.0 mph /  6.4 km/h 91 % 0.0 in /  0 mm
16:44 1.9 °F /  -16.7 °C 0.6 °F /  -17.4 °C 1009.0 in /  34164.7 hPa SSW 2.1 mph /  3.4 km/h 4.0 mph /  6.4 km/h 91 % 0.0 in /  0 mm
16:49 1.8 °F /  -16.8 °C 0.5 °F /  -17.5 °C 1009.0 in /  34164.7 hPa WSW 1.4 mph /  2.3 km/h 4.0 mph /  6.4 km/h 91 % 0.0 in /  0 mm
16:54 1.6 °F /  -16.9 °C 0.3 °F /  -17.6 °C 1009.0 in /  34164.7 hPa NW 1.3 mph /  2.1 km/h 4.0 mph /  6.4 km/h 91 % 0.0 in /  0 mm
16:59 1.5 °F /  -16.9 °C 0.2 °F /  -17.7 °C 1009.0 in /  34164.7 hPa NW 0.8 mph /  1.3 km/h 3.5 mph /  5.6 km/h 91 % 0.0 in /  0 mm
17:04 1.4 °F /  -17 °C 0.1 °F /  -17.7 °C 1009.0 in /  34164.7 hPa SW 1.0 mph /  1.6 km/h 4.0 mph /  6.4 km/h 91 % 0.0 in /  0 mm
17:09 1.2 °F /  -17.1 °C -0.1 °F /  -17.8 °C 1009.0 in /  34164.7 hPa SW 1.1 mph /  1.8 km/h 4.0 mph /  6.4 km/h 91 % 0.0 in /  0 mm
17:14 1.1 °F /  -17.2 °C -0.2 °F /  -17.9 °C 1009.0 in /  34164.7 hPa NNW 0.2 mph /  0.3 km/h 3.2 mph /  5.1 km/h 91 % 0.0 in /  0 mm
17:19 1.1 °F /  -17.2 °C -0.2 °F /  -17.9 °C 1009.0 in /  34164.7 hPa NW 0.2 mph /  0.3 km/h 3.2 mph /  5.1 km/h 91 % 0.0 in /  0 mm
17:24 1.1 °F /  -17.2 °C -0.2 °F /  -17.9 °C 1009.0 in /  34164.7 hPa NW 0.5 mph /  0.8 km/h 3.5 mph /  5.6 km/h 91 % 0.0 in /  0 mm
17:29 1.1 °F /  -17.2 °C -0.2 °F /  -17.9 °C 1009.0 in /  34164.7 hPa NW 1.0 mph /  1.6 km/h 3.5 mph /  5.6 km/h 91 % 0.0 in /  0 mm
17:34 1.1 °F /  -17.2 °C -0.2 °F /  -17.9 °C 1009.0 in /  34164.7 hPa NNW 0.6 mph /  1 km/h 3.5 mph /  5.6 km/h 91 % 0.0 in /  0 mm
17:39 1.1 °F /  -17.2 °C -0.2 °F /  -17.9 °C 1009.0 in /  34164.7 hPa Calm     91 % 0.0 in /  0 mm
17:44 1.1 °F /  -17.2 °C -0.2 °F /  -17.9 °C 1008.0 in /  34130.9 hPa South 0.3 mph /  0.5 km/h 8.7 mph /  14 km/h 91 % 0.0 in /  0 mm
17:49 1.3 °F /  -17.1 °C 0.0 °F /  -17.8 °C 1008.0 in /  34130.9 hPa SSW 3.2 mph /  5.1 km/h 8.7 mph /  14 km/h 91 % 0.0 in /  0 mm
17:55 1.3 °F /  -17.1 °C 0.0 °F /  -17.8 °C 1008.0 in /  34130.9 hPa SSW 5.1 mph /  8.2 km/h 7.9 mph /  12.7 km/h 91 % 0.0 in /  0 mm
18:00 1.3 °F /  -17.1 °C 0.0 °F /  -17.8 °C 1008.0 in /  34130.9 hPa South 5.0 mph /  8 km/h 7.9 mph /  12.7 km/h 91 % 0.0 in /  0 mm
18:05 1.3 °F /  -17.1 °C 0.2 °F /  -17.7 °C 1008.0 in /  34130.9 hPa South 4.8 mph /  7.7 km/h 7.9 mph /  12.7 km/h 92 % 0.0 in /  0 mm
18:10 1.3 °F /  -17.1 °C 0.2 °F /  -17.7 °C 1008.0 in /  34130.9 hPa SSW 3.1 mph /  5 km/h 7.9 mph /  12.7 km/h 92 % 0.0 in /  0 mm
18:15 1.3 °F /  -17.1 °C 0.2 °F /  -17.7 °C 1008.0 in /  34130.9 hPa SW 2.4 mph /  3.9 km/h 5.8 mph /  9.3 km/h 92 % 0.0 in /  0 mm
18:20 1.3 °F /  -17.1 °C 0.2 °F /  -17.7 °C 1008.0 in /  34130.9 hPa SSW 4.2 mph /  6.8 km/h 8.7 mph /  14 km/h 92 % 0.0 in /  0 mm
18:25 1.3 °F /  -17.1 °C 0.2 °F /  -17.7 °C 1008.0 in /  34130.9 hPa South 5.1 mph /  8.2 km/h 8.7 mph /  14 km/h 92 % 0.0 in /  0 mm
18:30 1.2 °F /  -17.1 °C 0.1 °F /  -17.7 °C 1008.0 in /  34130.9 hPa South 4.2 mph /  6.8 km/h 6.9 mph /  11.1 km/h 92 % 0.0 in /  0 mm
18:35 1.2 °F /  -17.1 °C 0.1 °F /  -17.7 °C 1008.0 in /  34130.9 hPa South 2.9 mph /  4.7 km/h 6.1 mph /  9.8 km/h 92 % 0.0 in /  0 mm
18:40 1.2 °F /  -17.1 °C 0.1 °F /  -17.7 °C 1008.0 in /  34130.9 hPa South 3.2 mph /  5.1 km/h 6.1 mph /  9.8 km/h 92 % 0.0 in /  0 mm
18:45 1.1 °F /  -17.2 °C -0.1 °F /  -17.8 °C 1008.0 in /  34130.9 hPa South 3.9 mph /  6.3 km/h 5.8 mph /  9.3 km/h 92 % 0.0 in /  0 mm
18:50 1.1 °F /  -17.2 °C -0.1 °F /  -17.8 °C 1008.0 in /  34130.9 hPa South 3.1 mph /  5 km/h 4.7 mph /  7.6 km/h 92 % 0.0 in /  0 mm
18:55 1.1 °F /  -17.2 °C -0.1 °F /  -17.8 °C 1008.0 in /  34130.9 hPa South 2.4 mph /  3.9 km/h 5.5 mph /  8.9 km/h 92 % 0.0 in /  0 mm
19:00 1.1 °F /  -17.2 °C -0.1 °F /  -17.8 °C 1008.0 in /  34130.9 hPa SSW 2.3 mph /  3.7 km/h 5.5 mph /  8.9 km/h 92 % 0.0 in /  0 mm
19:05 1.1 °F /  -17.2 °C -0.1 °F /  -17.8 °C 1008.0 in /  34130.9 hPa South 1.4 mph /  2.3 km/h 4.7 mph /  7.6 km/h 92 % 0.0 in /  0 mm
19:10 1.1 °F /  -17.2 °C -0.1 °F /  -17.8 °C 1008.0 in /  34130.9 hPa South 1.0 mph /  1.6 km/h 4.3 mph /  6.9 km/h 92 % 0.0 in /  0 mm
19:15 1.1 °F /  -17.2 °C -0.1 °F /  -17.8 °C 1008.0 in /  34130.9 hPa South 1.8 mph /  2.9 km/h 5.5 mph /  8.9 km/h 92 % 0.0 in /  0 mm
19:20 1.0 °F /  -17.2 °C 0.0 °F /  -17.8 °C 1008.0 in /  34130.9 hPa South 1.3 mph /  2.1 km/h 5.5 mph /  8.9 km/h 93 % 0.0 in /  0 mm
19:25 1.0 °F /  -17.2 °C 0.0 °F /  -17.8 °C 1008.0 in /  34130.9 hPa SSW 0.6 mph /  1 km/h 2.6 mph /  4.2 km/h 93 % 0.0 in /  0 mm
19:30 1.0 °F /  -17.2 °C 0.0 °F /  -17.8 °C 1008.0 in /  34130.9 hPa SSW 0.5 mph /  0.8 km/h 2.6 mph /  4.2 km/h 93 % 0.0 in /  0 mm
19:35 1.0 °F /  -17.2 °C 0.0 °F /  -17.8 °C 1008.0 in /  34130.9 hPa SSE 0.5 mph /  0.8 km/h 5.8 mph /  9.3 km/h 93 % 0.0 in /  0 mm
19:40 1.0 °F /  -17.2 °C 0.0 °F /  -17.8 °C 1008.0 in /  34130.9 hPa SSE 1.8 mph /  2.9 km/h 5.8 mph /  9.3 km/h 93 % 0.0 in /  0 mm
19:45 1.0 °F /  -17.2 °C 0.0 °F /  -17.8 °C 1008.0 in /  34130.9 hPa South 2.7 mph /  4.3 km/h 5.5 mph /  8.9 km/h 93 % 0.0 in /  0 mm
19:50 1.0 °F /  -17.2 °C 0.0 °F /  -17.8 °C 1008.0 in /  34130.9 hPa South 3.1 mph /  5 km/h 5.8 mph /  9.3 km/h 93 % 0.0 in /  0 mm
19:55 1.0 °F /  -17.2 °C 0.0 °F /  -17.8 °C 1008.0 in /  34130.9 hPa SSE 3.5 mph /  5.6 km/h 5.8 mph /  9.3 km/h 93 % 0.0 in /  0 mm
20:00 1.0 °F /  -17.2 °C 0.0 °F /  -17.8 °C 1006.0 in /  34063.2 hPa SE 3.7 mph /  6 km/h 5.8 mph /  9.3 km/h 93 % 0.0 in /  0 mm
20:05 0.9 °F /  -17.3 °C 0.1 °F /  -17.7 °C 1006.0 in /  34063.2 hPa SSE 3.7 mph /  6 km/h 5.8 mph /  9.3 km/h 94 % 0.0 in /  0 mm
20:10 0.9 °F /  -17.3 °C 0.1 °F /  -17.7 °C 1006.0 in /  34063.2 hPa South 3.7 mph /  6 km/h 5.8 mph /  9.3 km/h 94 % 0.0 in /  0 mm
20:15 0.9 °F /  -17.3 °C 0.1 °F /  -17.7 °C 1007.0 in /  34097 hPa South 2.9 mph /  4.7 km/h 5.5 mph /  8.9 km/h 94 % 0.0 in /  0 mm
20:20 0.9 °F /  -17.3 °C 0.1 °F /  -17.7 °C 1007.0 in /  34097 hPa SSE 1.1 mph /  1.8 km/h 4.7 mph /  7.6 km/h 94 % 0.0 in /  0 mm
20:25 0.9 °F /  -17.3 °C 0.1 °F /  -17.7 °C 1007.0 in /  34097 hPa SSW 0.2 mph /  0.3 km/h 3.2 mph /  5.1 km/h 94 % 0.0 in /  0 mm
20:30 0.9 °F /  -17.3 °C 0.1 °F /  -17.7 °C 1007.0 in /  34097 hPa SW 0.8 mph /  1.3 km/h 3.5 mph /  5.6 km/h 94 % 0.0 in /  0 mm
20:35 0.9 °F /  -17.3 °C 0.1 °F /  -17.7 °C 1007.0 in /  34097 hPa SW 0.8 mph /  1.3 km/h 3.5 mph /  5.6 km/h 94 % 0.0 in /  0 mm
20:40 0.9 °F /  -17.3 °C 0.1 °F /  -17.7 °C 1007.0 in /  34097 hPa Calm     94 % 0.0 in /  0 mm
20:45 0.9 °F /  -17.3 °C 0.1 °F /  -17.7 °C 1006.0 in /  34063.2 hPa Calm     94 % 0.0 in /  0 mm
20:50 0.9 °F /  -17.3 °C 0.1 °F /  -17.7 °C 1006.0 in /  34063.2 hPa Calm     94 % 0.0 in /  0 mm
20:55 0.9 °F /  -17.3 °C 0.1 °F /  -17.7 °C 1006.0 in /  34063.2 hPa Calm     94 % 0.0 in /  0 mm
21:00 0.9 °F /  -17.3 °C 0.1 °F /  -17.7 °C 1005.0 in /  34029.3 hPa Calm     94 % 0.0 in /  0 mm
21:05 0.9 °F /  -17.3 °C 0.1 °F /  -17.7 °C 1005.0 in /  34029.3 hPa WNW 0.2 mph /  0.3 km/h 2.1 mph /  3.4 km/h 94 % 0.0 in /  0 mm
21:10 0.8 °F /  -17.3 °C -0.1 °F /  -17.8 °C 1005.0 in /  34029.3 hPa WNW 0.2 mph /  0.3 km/h 2.1 mph /  3.4 km/h 94 % 0.0 in /  0 mm
21:15 0.8 °F /  -17.3 °C -0.1 °F /  -17.8 °C 1005.0 in /  34029.3 hPa Calm     94 % 0.0 in /  0 mm
21:20 0.8 °F /  -17.3 °C -0.1 °F /  -17.8 °C 1005.0 in /  34029.3 hPa Calm   3.5 mph /  5.6 km/h 94 % 0.0 in /  0 mm
21:25 0.8 °F /  -17.3 °C -0.1 °F /  -17.8 °C 1005.0 in /  34029.3 hPa SSW 0.8 mph /  1.3 km/h 3.5 mph /  5.6 km/h 94 % 0.0 in /  0 mm
21:30 0.8 °F /  -17.3 °C -0.1 °F /  -17.8 °C 1005.0 in /  34029.3 hPa SW 1.9 mph /  3.1 km/h 4.7 mph /  7.6 km/h 94 % 0.0 in /  0 mm
21:35 0.8 °F /  -17.3 °C 0.1 °F /  -17.7 °C 1005.0 in /  34029.3 hPa SW 1.8 mph /  2.9 km/h 4.7 mph /  7.6 km/h 95 % 0.0 in /  0 mm
21:40 0.8 °F /  -17.3 °C 0.1 °F /  -17.7 °C 1005.0 in /  34029.3 hPa SW 0.6 mph /  1 km/h 3.2 mph /  5.1 km/h 95 % 0.0 in /  0 mm
21:45 0.8 °F /  -17.3 °C 0.1 °F /  -17.7 °C 1005.0 in /  34029.3 hPa Calm     95 % 0.0 in /  0 mm
21:50 0.8 °F /  -17.3 °C 0.1 °F /  -17.7 °C 1005.0 in /  34029.3 hPa West 0.6 mph /  1 km/h 3.5 mph /  5.6 km/h 95 % 0.0 in /  0 mm
21:55 0.8 °F /  -17.3 °C 0.1 °F /  -17.7 °C 1005.0 in /  34029.3 hPa West 0.6 mph /  1 km/h 3.5 mph /  5.6 km/h 95 % 0.0 in /  0 mm
22:00 0.8 °F /  -17.3 °C 0.1 °F /  -17.7 °C 1005.0 in /  34029.3 hPa Calm   1.4 mph /  2.3 km/h 95 % 0.0 in /  0 mm
22:05 0.8 °F /  -17.3 °C 0.1 °F /  -17.7 °C 1005.0 in /  34029.3 hPa Calm   2.6 mph /  4.2 km/h 95 % 0.0 in /  0 mm
22:10 0.8 °F /  -17.3 °C 0.1 °F /  -17.7 °C 1005.0 in /  34029.3 hPa WSW 1.8 mph /  2.9 km/h 5.0 mph /  8 km/h 95 % 0.0 in /  0 mm
22:15 0.8 °F /  -17.3 °C 0.1 °F /  -17.7 °C 1005.0 in /  34029.3 hPa WSW 2.4 mph /  3.9 km/h 5.0 mph /  8 km/h 95 % 0.0 in /  0 mm
22:20 0.8 °F /  -17.3 °C 0.1 °F /  -17.7 °C 1005.0 in /  34029.3 hPa WSW 0.8 mph /  1.3 km/h 4.0 mph /  6.4 km/h 95 % 0.0 in /  0 mm
22:25 0.8 °F /  -17.3 °C 0.1 °F /  -17.7 °C 1005.0 in /  34029.3 hPa SSW 0.8 mph /  1.3 km/h 4.3 mph /  6.9 km/h 95 % 0.0 in /  0 mm
22:30 0.8 °F /  -17.3 °C 0.1 °F /  -17.7 °C 1005.0 in /  34029.3 hPa SW 2.6 mph /  4.2 km/h 4.7 mph /  7.6 km/h 95 % 0.0 in /  0 mm
22:35 0.8 °F /  -17.3 °C 0.1 °F /  -17.7 °C 1005.0 in /  34029.3 hPa SW 2.9 mph /  4.7 km/h 4.7 mph /  7.6 km/h 95 % 0.0 in /  0 mm
22:40 0.8 °F /  -17.3 °C 0.1 °F /  -17.7 °C 1005.0 in /  34029.3 hPa SW 1.6 mph /  2.6 km/h 3.2 mph /  5.1 km/h 95 % 0.0 in /  0 mm
22:45 0.8 °F /  -17.3 °C 0.1 °F /  -17.7 °C 1005.0 in /  34029.3 hPa SW 0.3 mph /  0.5 km/h 3.2 mph /  5.1 km/h 95 % 0.0 in /  0 mm
22:50 0.8 °F /  -17.3 °C 0.1 °F /  -17.7 °C 1005.0 in /  34029.3 hPa Calm   1.8 mph /  2.9 km/h 95 % 0.0 in /  0 mm
22:55 0.8 °F /  -17.3 °C 0.1 °F /  -17.7 °C 1005.0 in /  34029.3 hPa Calm     95 % 0.0 in /  0 mm
23:00 0.9 °F /  -17.3 °C 0.2 °F /  -17.7 °C 1005.0 in /  34029.3 hPa SSW 0.2 mph /  0.3 km/h 2.1 mph /  3.4 km/h 95 % 0.0 in /  0 mm
23:05 0.9 °F /  -17.3 °C 0.2 °F /  -17.7 °C 1005.0 in /  34029.3 hPa SSW 0.2 mph /  0.3 km/h 2.1 mph /  3.4 km/h 95 % 0.0 in /  0 mm
23:06 0.9 °F /  -17.3 °C 0.2 °F /  -17.7 °C 1005.0 in /  34029.3 hPa South 0.5 mph /  0.8 km/h 3.2 mph /  5.1 km/h 95 % 0.0 in /  0 mm
23:11 0.9 °F /  -17.3 °C 0.2 °F /  -17.7 °C 1003.9 in /  33992.1 hPa SSE 1.1 mph /  1.8 km/h 4.0 mph /  6.4 km/h 95 % 0.0 in /  0 mm
23:16 0.9 °F /  -17.3 °C 0.2 °F /  -17.7 °C 1003.9 in /  33992.1 hPa SE 1.8 mph /  2.9 km/h 4.0 mph /  6.4 km/h 95 % 0.0 in /  0 mm
23:21 0.9 °F /  -17.3 °C 0.2 °F /  -17.7 °C 1003.9 in /  33992.1 hPa SE 1.4 mph /  2.3 km/h 5.0 mph /  8 km/h 95 % 0.0 in /  0 mm
23:26 0.9 °F /  -17.3 °C 0.2 °F /  -17.7 °C 1002.9 in /  33958.2 hPa SE 1.6 mph /  2.6 km/h 5.0 mph /  8 km/h 95 % 0.0 in /  0 mm
23:31 0.9 °F /  -17.3 °C 0.2 °F /  -17.7 °C 1002.9 in /  33958.2 hPa SE 2.4 mph /  3.9 km/h 4.7 mph /  7.6 km/h 95 % 0.0 in /  0 mm
23:36 0.9 °F /  -17.3 °C 0.2 °F /  -17.7 °C 1002.9 in /  33958.2 hPa ESE 2.4 mph /  3.9 km/h 4.7 mph /  7.6 km/h 95 % 0.0 in /  0 mm
23:41 0.9 °F /  -17.3 °C 0.3 °F /  -17.6 °C 1002.9 in /  33958.2 hPa SE 1.6 mph /  2.6 km/h 4.7 mph /  7.6 km/h 96 % 0.0 in /  0 mm
23:46 0.9 °F /  -17.3 °C 0.3 °F /  -17.6 °C 1002.9 in /  33958.2 hPa SE 0.5 mph /  0.8 km/h 3.2 mph /  5.1 km/h 96 % 0.0 in /  0 mm
23:51 0.9 °F /  -17.3 °C 0.3 °F /  -17.6 °C 1002.9 in /  33958.2 hPa Calm     96 % 0.0 in /  0 mm
23:56 0.9 °F /  -17.3 °C 0.3 °F /  -17.6 °C 1002.9 in /  33958.2 hPa Calm     96 % 0.0 in /  0 mm
Vremenska postaja Senovo
Podatki zbrani iz Weather Underground - 3 mb

Script developed by  Jim McMurry - jmcmurry@mwt.net Adapted for the template by  Wim van der Kuil - Leuven-Template.eu

Vremenski podatki so objavljeni na:

European Weather Network

WeatherCloud

Weather Underground

AWEKAS

HAMweather, WeatherForYou, PWS Weather

MapView

Geostik

Slovenia weather network

Oprema, ki se uporablja:

Vremenski program
Cumulus

Vremenski server
Asus

Cumulus

Asus